Time;durP1;ratioP1;P1;durP2;ratioP2;P2;SDS_P1;SDS_P2;PMS_P1;PMS_P2;Temp;Humidity;BMP_temperature;BMP_pressure;BME280_temperature;BME280_humidity;BME280_pressure;Samples;Min_cycle;Max_cycle;Signal;HPM_P1;HPM_P2
2023/01/01 00:00:22;;;;;;;18.73;9.85;;;14.50;99.90;;;;;;5038023;28;20043;-96
2023/01/01 00:02:47;;;;;;;20.92;10.57;;;14.50;99.90;;;;;;5038707;28;20041;-96
2023/01/01 00:05:13;;;;;;;14.90;7.93;;;14.50;99.90;;;;;;5037983;28;20029;-96
2023/01/01 00:07:38;;;;;;;16.88;7.10;;;14.40;99.90;;;;;;5038957;28;20044;-96
2023/01/01 00:12:48;;;;;;;22.98;10.32;;;14.30;99.90;;;;;;5066216;28;20048;-96
2023/01/01 00:15:14;;;;;;;19.15;10.98;;;14.30;99.90;;;;;;5071199;28;20041;-95
2023/01/01 00:17:40;;;;;;;17.48;8.10;;;14.30;99.90;;;;;;5056984;28;20032;-95
2023/01/01 00:20:06;;;;;;;17.88;11.88;;;14.30;99.90;;;;;;5038014;28;20041;-95
2023/01/01 00:22:32;;;;;;;19.10;12.25;;;14.30;99.90;;;;;;5036755;28;20631;-95
2023/01/01 00:24:58;;;;;;;19.77;10.15;;;14.30;99.90;;;;;;5053614;28;20078;-95
2023/01/01 00:27:23;;;;;;;15.77;8.35;;;14.20;99.90;;;;;;5037622;28;20043;-95
2023/01/01 00:29:49;;;;;;;24.10;16.85;;;14.20;99.90;;;;;;5036426;28;20036;-95
2023/01/01 00:32:14;;;;;;;24.35;16.63;;;14.20;99.90;;;;;;5053369;28;20040;-94
2023/01/01 00:34:40;;;;;;;19.50;10.50;;;14.30;99.90;;;;;;5037387;28;20037;-96
2023/01/01 00:37:05;;;;;;;27.35;19.48;;;14.20;99.90;;;;;;5045271;28;20036;-94
2023/01/01 00:39:31;;;;;;;21.33;11.23;;;14.20;99.90;;;;;;5054259;28;20036;-95
2023/01/01 00:41:56;;;;;;;24.23;17.58;;;14.20;99.90;;;;;;5053339;28;20045;-95
2023/01/01 00:44:22;;;;;;;25.00;17.08;;;14.30;99.90;;;;;;5051025;28;20041;-95
2023/01/01 00:46:48;;;;;;;24.38;17.27;;;14.30;99.90;;;;;;5054194;28;20045;-96
2023/01/01 00:49:13;;;;;;;23.42;17.73;;;14.30;99.90;;;;;;5051638;28;20397;-96
2023/01/01 00:51:39;;;;;;;25.05;17.83;;;14.40;99.90;;;;;;5037856;28;20052;-96
2023/01/01 00:54:04;;;;;;;22.20;11.43;;;14.30;99.90;;;;;;5039748;28;20036;-92
2023/01/01 00:56:30;;;;;;;19.95;12.38;;;14.30;99.90;;;;;;5056517;28;20043;-91
2023/01/01 00:58:56;;;;;;;28.17;18.50;;;14.30;99.90;;;;;;5057476;28;20460;-96
2023/01/01 01:01:22;;;;;;;25.95;18.15;;;14.30;99.90;;;;;;5040725;28;20054;-95
2023/01/01 01:03:47;;;;;;;28.08;20.73;;;14.30;99.90;;;;;;5041131;28;20496;-96
2023/01/01 01:06:15;;;;;;;23.25;12.70;;;14.20;99.90;;;;;;5041294;28;20060;-96
2023/01/01 01:08:43;;;;;;;23.40;17.95;;;14.10;99.90;;;;;;5040729;28;20486;-94
2023/01/01 01:11:16;;;;;;;26.70;17.63;;;14.10;99.90;;;;;;5057903;28;20105;-96
2023/01/01 01:13:43;;;;;;;;;;;14.10;99.90;;;;;;5040405;28;20044;-96
2023/01/01 01:16:20;;;;;;;24.88;17.98;;;14.10;99.90;;;;;;5074022;28;20062;-95
2023/01/01 01:18:49;;;;;;;24.92;17.17;;;14.10;99.90;;;;;;5056829;28;20039;-95
2023/01/01 01:21:16;;;;;;;22.77;16.38;;;14.20;99.90;;;;;;5039675;28;20129;-95
2023/01/01 01:23:42;;;;;;;19.38;10.93;;;14.20;99.90;;;;;;5039277;28;20028;-92
2023/01/01 01:26:35;;;;;;;20.63;9.10;;;14.20;99.90;;;;;;5038596;28;20175;-95
2023/01/01 01:29:01;;;;;;;26.55;16.00;;;14.20;99.90;;;;;;4976712;28;20501;-95
2023/01/01 01:31:29;;;;;;;23.25;17.13;;;14.30;99.90;;;;;;4958398;28;20050;-95
2023/01/01 01:33:56;;;;;;;18.48;11.48;;;14.30;99.90;;;;;;4960553;28;20086;-96
2023/01/01 01:36:22;;;;;;;22.95;11.15;;;14.40;99.90;;;;;;4976996;28;20046;-95
2023/01/01 01:38:48;;;;;;;23.92;15.95;;;14.30;99.90;;;;;;4959954;28;20039;-95
2023/01/01 01:41:15;;;;;;;19.55;11.93;;;14.40;99.90;;;;;;4976800;28;20065;-94
2023/01/01 01:43:41;;;;;;;22.80;15.77;;;14.40;99.90;;;;;;4960183;28;20102;-95
2023/01/01 01:46:37;;;;;;;21.17;11.85;;;14.40;99.90;;;;;;4960860;28;20165;-95
2023/01/01 01:49:09;;;;;;;26.73;17.83;;;14.40;99.90;;;;;;4960963;28;20038;-95
2023/01/01 01:51:39;;;;;;;19.38;10.32;;;14.40;99.90;;;;;;4960459;28;20405;-96
2023/01/01 01:54:12;;;;;;;21.98;9.88;;;14.30;99.90;;;;;;4960633;28;20055;-95
2023/01/01 01:56:54;;;;;;;23.90;16.02;;;14.30;99.90;;;;;;4960253;28;20146;-96
2023/01/01 01:59:21;;;;;;;22.33;15.40;;;14.40;99.90;;;;;;4976442;28;20054;-96
2023/01/01 02:01:46;;;;;;;23.10;16.13;;;14.40;99.90;;;;;;4976729;28;20536;-95
2023/01/01 02:04:12;;;;;;;23.23;10.88;;;14.40;99.90;;;;;;4987349;28;20057;-95
2023/01/01 02:06:39;;;;;;;23.95;14.15;;;14.40;99.90;;;;;;5022341;28;20048;-96
2023/01/01 02:09:06;;;;;;;18.38;9.57;;;14.40;99.90;;;;;;5040248;28;20568;-96
2023/01/01 02:11:32;;;;;;;23.17;14.80;;;14.40;99.90;;;;;;5055891;28;20040;-96
2023/01/01 02:14:00;;;;;;;16.95;9.30;;;14.40;99.90;;;;;;5039764;28;20383;-95
2023/01/01 02:16:25;;;;;;;23.10;14.75;;;14.30;99.90;;;;;;5039596;28;20064;-96
2023/01/01 02:19:13;;;;;;;24.92;15.63;;;14.30;99.90;;;;;;5039779;28;20051;-96
2023/01/01 02:21:59;;;;;;;17.27;9.23;;;14.30;99.90;;;;;;5055882;28;20045;-96
2023/01/01 02:24:43;;;;;;;18.63;9.80;;;14.30;99.90;;;;;;5039014;28;20383;-95
2023/01/01 02:27:38;;;;;;;20.38;13.68;;;14.20;99.90;;;;;;5056187;28;20044;-96
2023/01/01 02:30:06;;;;;;;20.98;13.57;;;14.20;99.90;;;;;;5039224;28;20040;-95
2023/01/01 02:32:59;;;;;;;21.85;13.90;;;14.20;99.90;;;;;;5055870;28;20033;-95
2023/01/01 02:35:41;;;;;;;22.25;13.45;;;14.20;99.90;;;;;;5038646;28;20477;-95
2023/01/01 02:38:21;;;;;;;21.30;13.13;;;14.20;99.90;;;;;;5039412;28;20402;-96
2023/01/01 02:40:50;;;;;;;14.85;6.93;;;14.20;99.90;;;;;;5063771;28;20036;-96
2023/01/01 02:43:16;;;;;;;21.73;12.18;;;14.10;99.90;;;;;;5055406;28;20052;-96
2023/01/01 02:45:42;;;;;;;21.20;10.05;;;14.20;99.90;;;;;;5038776;28;20557;-96
2023/01/01 02:48:38;;;;;;;18.30;6.32;;;14.30;99.90;;;;;;5038719;28;20039;-95
2023/01/01 02:51:10;;;;;;;15.90;6.45;;;14.20;99.90;;;;;;5049331;28;20057;-96
2023/01/01 02:53:44;;;;;;;17.48;8.73;;;14.20;99.90;;;;;;5037991;28;20062;-96
2023/01/01 02:56:36;;;;;;;17.40;8.35;;;14.30;99.90;;;;;;5038914;28;20047;-95
2023/01/01 03:01:50;;;;;;;14.13;6.30;;;14.30;99.90;;;;;;5055251;28;20048;-94
2023/01/01 03:04:28;;;;;;;15.95;4.47;;;14.40;99.90;;;;;;5038390;28;20059;-95
2023/01/01 03:07:00;;;;;;;15.93;5.80;;;14.40;99.90;;;;;;5038615;28;20402;-95
2023/01/01 03:09:57;;;;;;;12.30;3.40;;;14.40;99.90;;;;;;5038590;28;20075;-95
2023/01/01 03:12:50;;;;;;;11.57;3.85;;;14.40;99.90;;;;;;5033829;28;20113;-96
2023/01/01 03:15:23;;;;;;;13.15;4.88;;;14.40;99.90;;;;;;5034650;28;20044;-95
2023/01/01 03:18:08;;;;;;;10.50;4.47;;;14.50;99.90;;;;;;5041865;28;20032;-95
2023/01/01 03:20:39;;;;;;;13.90;4.70;;;14.60;99.90;;;;;;5038299;28;20166;-95
2023/01/01 03:23:12;;;;;;;13.70;4.10;;;14.60;99.90;;;;;;5037808;28;20513;-95
2023/01/01 03:25:45;;;;;;;8.82;2.30;;;14.60;99.90;;;;;;5037988;28;20573;-96
2023/01/01 03:28:16;;;;;;;9.82;2.95;;;14.60;99.90;;;;;;5038719;28;20089;-96
2023/01/01 03:30:44;;;;;;;10.35;3.97;;;14.60;99.90;;;;;;5037599;28;20039;-96
2023/01/01 03:33:22;;;;;;;10.35;3.55;;;14.60;99.90;;;;;;5054479;28;20165;-95
2023/01/01 03:35:58;;;;;;;12.57;4.00;;;14.60;99.70;;;;;;5038068;28;20059;-95
2023/01/01 03:38:36;;;;;;;11.30;4.28;;;14.60;99.90;;;;;;5038590;28;20040;-95
2023/01/01 03:41:07;;;;;;;12.50;2.85;;;14.60;99.90;;;;;;5037873;28;20040;-95
2023/01/01 03:43:51;;;;;;;10.02;2.10;;;14.60;99.90;;;;;;5037623;28;20032;-96
2023/01/01 03:46:22;;;;;;;9.55;3.47;;;14.60;99.90;;;;;;5038154;28;20490;-95
2023/01/01 03:48:59;;;;;;;5.95;1.90;;;14.60;99.10;;;;;;5037291;28;20040;-94
2023/01/01 03:51:43;;;;;;;9.05;2.20;;;14.60;99.80;;;;;;5037717;28;20036;-95
2023/01/01 03:54:26;;;;;;;13.50;3.40;;;14.60;99.60;;;;;;5037364;28;20100;-96
2023/01/01 03:57:00;;;;;;;11.30;2.95;;;14.60;99.90;;;;;;5038005;28;20103;-95
2023/01/01 03:59:45;;;;;;;9.10;2.78;;;14.60;99.50;;;;;;5037694;28;20406;-95
2023/01/01 04:02:13;;;;;;;8.63;2.03;;;14.70;97.00;;;;;;5037245;28;20037;-95
2023/01/01 04:05:06;;;;;;;7.00;1.95;;;14.70;96.90;;;;;;5054472;28;20047;-96
2023/01/01 04:07:32;;;;;;;6.82;1.95;;;14.60;96.20;;;;;;4957884;28;20109;-95
2023/01/01 04:10:01;;;;;;;9.95;2.08;;;14.60;99.00;;;;;;4974502;28;20051;-95
2023/01/01 04:12:28;;;;;;;10.65;3.53;;;14.60;96.40;;;;;;4973712;28;20129;-94
2023/01/01 04:14:54;;;;;;;13.32;3.45;;;14.70;98.10;;;;;;4957908;28;20112;-95
2023/01/01 04:17:19;;;;;;;12.32;3.00;;;14.70;97.60;;;;;;4957962;28;20097;-95
2023/01/01 04:19:45;;;;;;;10.48;3.40;;;14.70;97.70;;;;;;4973714;28;20054;-95
2023/01/01 04:22:10;;;;;;;11.07;2.75;;;14.60;98.30;;;;;;4957804;28;20550;-94
2023/01/01 04:24:36;;;;;;;11.63;3.05;;;14.60;97.40;;;;;;4958062;28;20054;-96
2023/01/01 04:27:02;;;;;;;8.45;1.67;;;14.70;97.90;;;;;;4975684;28;20076;-95
2023/01/01 04:29:28;;;;;;;10.70;1.70;;;14.60;97.90;;;;;;4961906;28;20105;-94
2023/01/01 04:31:53;;;;;;;8.55;3.08;;;14.60;98.40;;;;;;4977493;28;20042;-95
2023/01/01 04:34:19;;;;;;;10.93;3.17;;;14.60;97.40;;;;;;4994105;28;20546;-94
2023/01/01 04:36:45;;;;;;;6.32;1.75;;;14.60;96.80;;;;;;4994653;28;20061;-95
2023/01/01 04:39:11;;;;;;;12.18;3.17;;;14.60;98.30;;;;;;4961225;28;20089;-95
2023/01/01 04:41:37;;;;;;;9.90;3.05;;;14.60;98.20;;;;;;4977866;28;20688;-95
2023/01/01 04:44:03;;;;;;;12.23;3.05;;;14.60;98.10;;;;;;5002266;28;20063;-94
2023/01/01 04:46:28;;;;;;;10.30;2.95;;;14.60;98.70;;;;;;5040834;28;20033;-94
2023/01/01 04:48:54;;;;;;;7.07;1.55;;;14.60;98.00;;;;;;5040660;28;20512;-94
2023/01/01 04:51:21;;;;;;;10.82;3.25;;;14.60;98.40;;;;;;5040865;28;20197;-94
2023/01/01 04:53:46;;;;;;;12.75;3.13;;;14.50;98.50;;;;;;5040772;28;20493;-94
2023/01/01 04:56:14;;;;;;;10.38;2.45;;;14.60;97.60;;;;;;5056950;28;20086;-94
2023/01/01 04:58:41;;;;;;;10.95;3.00;;;14.60;96.70;;;;;;5040991;28;20522;-94
2023/01/01 05:01:12;;;;;;;7.95;1.77;;;14.70;96.50;;;;;;5057239;28;20055;-95
2023/01/01 05:03:38;;;;;;;11.77;3.23;;;14.60;98.40;;;;;;5039679;28;20413;-94
2023/01/01 05:06:07;;;;;;;12.35;3.05;;;14.60;98.40;;;;;;5057669;28;20437;-94
2023/01/01 05:08:36;;;;;;;9.77;2.70;;;14.60;98.00;;;;;;5040105;28;20123;-94
2023/01/01 05:11:12;;;;;;;8.02;2.60;;;14.60;99.20;;;;;;5040405;28;20040;-96
2023/01/01 05:13:41;;;;;;;8.98;2.47;;;14.50;98.00;;;;;;5056912;28;20036;-94
2023/01/01 05:16:08;;;;;;;11.00;1.65;;;14.50;98.10;;;;;;5040248;28;20047;-94
2023/01/01 05:18:35;;;;;;;6.50;1.42;;;14.40;99.90;;;;;;5040784;28;20646;-96
2023/01/01 05:21:03;;;;;;;10.85;2.50;;;14.40;99.70;;;;;;5047717;28;20413;-95
2023/01/01 05:23:29;;;;;;;7.60;2.20;;;14.40;99.70;;;;;;5056893;28;20086;-95
2023/01/01 05:25:55;;;;;;;7.88;1.95;;;14.40;99.10;;;;;;5056444;28;20028;-96
2023/01/01 05:28:22;;;;;;;5.30;1.20;;;14.40;96.00;;;;;;5060390;28;20048;-94
2023/01/01 05:30:48;;;;;;;6.82;1.25;;;14.30;98.00;;;;;;5040252;28;20044;-95
2023/01/01 05:33:14;;;;;;;9.18;2.33;;;14.30;97.10;;;;;;5039753;28;20033;-96
2023/01/01 05:35:40;;;;;;;7.68;2.03;;;14.30;97.20;;;;;;5057284;28;20063;-95
2023/01/01 05:38:05;;;;;;;6.45;1.13;;;14.30;96.60;;;;;;5039002;28;20036;-95
2023/01/01 05:40:31;;;;;;;6.78;2.00;;;14.20;97.30;;;;;;5056926;28;20032;-94
2023/01/01 05:42:56;;;;;;;6.40;1.40;;;14.20;97.80;;;;;;5057869;28;20043;-95
2023/01/01 05:45:22;;;;;;;7.22;1.27;;;14.10;96.60;;;;;;5059813;28;20066;-95
2023/01/01 05:47:47;;;;;;;8.10;1.80;;;14.20;96.60;;;;;;5056635;28;20045;-95
2023/01/01 05:50:13;;;;;;;6.72;1.50;;;14.10;96.60;;;;;;5039721;28;20075;-94
2023/01/01 05:52:39;;;;;;;7.90;2.00;;;14.10;95.40;;;;;;5038684;28;20044;-94
2023/01/01 05:55:05;;;;;;;7.75;1.50;;;14.00;97.30;;;;;;5055603;28;20037;-94
2023/01/01 05:57:30;;;;;;;7.32;1.75;;;14.00;97.40;;;;;;5039311;28;20039;-94
2023/01/01 05:59:56;;;;;;;9.13;2.28;;;13.90;98.50;;;;;;5056372;28;20049;-95
2023/01/01 06:02:22;;;;;;;7.28;1.70;;;13.90;97.60;;;;;;5038399;28;20036;-95
2023/01/01 06:04:47;;;;;;;5.05;1.17;;;13.90;98.30;;;;;;5056256;28;20068;-95
2023/01/01 06:07:13;;;;;;;4.13;1.30;;;13.90;99.50;;;;;;5039630;28;20049;-95
2023/01/01 06:09:38;;;;;;;6.43;1.90;;;13.80;99.90;;;;;;5039053;28;20039;-95
2023/01/01 06:12:04;;;;;;;7.95;2.25;;;13.80;99.90;;;;;;5039205;28;20104;-93
2023/01/01 06:14:30;;;;;;;3.15;0.82;;;13.70;99.90;;;;;;5055617;28;20064;-95
2023/01/01 06:16:55;;;;;;;6.78;1.23;;;13.70;99.90;;;;;;5039521;28;20044;-95
2023/01/01 06:19:21;;;;;;;7.93;1.83;;;13.60;99.90;;;;;;5056195;28;20037;-94
2023/01/01 06:21:47;;;;;;;5.47;1.23;;;13.60;99.90;;;;;;5038781;28;20514;-95
2023/01/01 06:24:12;;;;;;;7.20;1.80;;;13.60;99.90;;;;;;5038890;28;20048;-94
2023/01/01 06:26:38;;;;;;;3.92;1.35;;;13.60;99.90;;;;;;5055517;28;20033;-94
2023/01/01 06:29:04;;;;;;;5.38;1.20;;;13.60;99.90;;;;;;5039265;28;20075;-95
2023/01/01 06:31:30;;;;;;;7.82;1.90;;;13.50;99.90;;;;;;5038638;28;20047;-95
2023/01/01 06:33:57;;;;;;;7.70;1.90;;;13.50;99.90;;;;;;5036285;28;20042;-95
2023/01/01 06:36:24;;;;;;;4.32;0.82;;;13.50;99.90;;;;;;5038096;28;20032;-95
2023/01/01 06:38:53;;;;;;;2.78;1.02;;;13.50;99.90;;;;;;5054778;28;20119;-95
2023/01/01 06:41:20;;;;;;;3.33;1.00;;;13.40;99.90;;;;;;5054710;28;20047;-94
2023/01/01 06:43:47;;;;;;;7.78;1.85;;;13.30;99.90;;;;;;5076271;28;20029;-94
2023/01/01 06:46:24;;;;;;;7.60;1.85;;;13.30;99.90;;;;;;5018437;28;20523;-95
2023/01/01 06:48:53;;;;;;;8.57;1.73;;;13.40;99.90;;;;;;5029675;28;20028;-94
2023/01/01 06:51:25;;;;;;;7.20;1.83;;;13.40;99.90;;;;;;5037277;28;20047;-94
2023/01/01 06:53:51;;;;;;;9.27;1.38;;;13.40;99.90;;;;;;5038010;28;20089;-95
2023/01/01 06:56:20;;;;;;;5.38;1.25;;;13.30;99.90;;;;;;5037461;28;20047;-94
2023/01/01 06:58:46;;;;;;;7.68;1.88;;;13.20;99.90;;;;;;5038168;28;20040;-93
2023/01/01 07:01:16;;;;;;;6.00;1.20;;;13.30;99.90;;;;;;5054515;28;20128;-94
2023/01/01 07:03:43;;;;;;;5.75;1.63;;;13.30;99.90;;;;;;5037137;28;20120;-94
2023/01/01 07:06:09;;;;;;;4.88;1.48;;;13.20;99.90;;;;;;5055050;28;20507;-95
2023/01/01 07:08:35;;;;;;;8.48;2.35;;;13.20;99.90;;;;;;5037822;28;20037;-94
2023/01/01 07:11:03;;;;;;;5.15;1.30;;;13.30;99.90;;;;;;5038072;28;20041;-95
2023/01/01 07:13:29;;;;;;;4.10;0.82;;;13.20;99.90;;;;;;5053982;28;20401;-95
2023/01/01 07:15:55;;;;;;;9.18;2.10;;;13.20;99.90;;;;;;5037984;28;20079;-94
2023/01/01 07:18:22;;;;;;;6.03;1.10;;;13.20;99.90;;;;;;5037832;28;20129;-94
2023/01/01 07:20:54;;;;;;;6.35;1.25;;;13.20;99.90;;;;;;5036893;28;20037;-95
2023/01/01 07:23:19;;;;;;;5.93;1.25;;;13.10;99.90;;;;;;5037414;28;20036;-94
2023/01/01 07:25:48;;;;;;;9.45;2.10;;;13.10;99.90;;;;;;5037031;28;20409;-95
2023/01/01 07:28:14;;;;;;;7.22;1.40;;;13.20;99.90;;;;;;5037219;28;20117;-94
2023/01/01 07:30:39;;;;;;;5.85;1.50;;;13.10;99.90;;;;;;5037266;28;20071;-93
2023/01/01 07:33:05;;;;;;;5.80;1.30;;;13.00;99.90;;;;;;5035835;28;20067;-94
2023/01/01 07:35:30;;;;;;;6.65;1.20;;;13.00;99.90;;;;;;5037316;28;20052;-94
2023/01/01 07:37:56;;;;;;;9.73;2.17;;;13.00;99.90;;;;;;5036991;28;20040;-95
2023/01/01 07:40:22;;;;;;;5.70;1.05;;;13.00;99.90;;;;;;5036930;28;20119;-93
2023/01/01 07:42:47;;;;;;;5.13;1.20;;;13.00;99.90;;;;;;5053602;28;20102;-93
2023/01/01 07:45:13;;;;;;;10.13;2.10;;;13.00;99.90;;;;;;5036536;28;20426;-94
2023/01/01 07:47:38;;;;;;;9.02;2.08;;;13.00;99.90;;;;;;5036785;28;20086;-94
2023/01/01 07:50:04;;;;;;;5.97;1.40;;;13.00;99.90;;;;;;5036386;28;20068;-94
2023/01/01 07:52:30;;;;;;;7.07;1.52;;;13.00;98.70;;;;;;5036111;28;20058;-94
2023/01/01 07:54:55;;;;;;;10.45;1.95;;;13.00;99.20;;;;;;5036945;28;20040;-94
2023/01/01 07:57:21;;;;;;;9.00;1.88;;;13.00;99.40;;;;;;5036403;28;20516;-93
2023/01/01 07:59:47;;;;;;;6.20;1.05;;;13.00;98.70;;;;;;5037206;28;20047;-95
2023/01/01 08:02:12;;;;;;;5.47;1.23;;;13.00;98.80;;;;;;5035681;28;20123;-94
2023/01/01 08:04:39;;;;;;;5.07;1.13;;;13.00;99.10;;;;;;5037069;28;20060;-95
2023/01/01 08:07:05;;;;;;;5.57;1.25;;;12.90;99.90;;;;;;5037123;28;20033;-94
2023/01/01 08:09:30;;;;;;;11.25;3.65;;;12.90;99.90;;;;;;5053390;28;20115;-95
2023/01/01 08:11:57;;;;;;;7.13;2.03;;;12.90;99.90;;;;;;5053932;28;20510;-95
2023/01/01 08:14:24;;;;;;;8.15;1.45;;;12.90;99.50;;;;;;5053834;28;20048;-94
2023/01/01 08:16:50;;;;;;;10.85;2.08;;;12.90;99.30;;;;;;5039229;28;20036;-94
2023/01/01 08:19:15;;;;;;;12.38;2.38;;;12.90;99.90;;;;;;5053744;28;20113;-94
2023/01/01 08:21:41;;;;;;;7.32;1.63;;;12.90;99.70;;;;;;5048560;28;20486;-95
2023/01/01 08:24:07;;;;;;;6.93;1.08;;;12.90;99.80;;;;;;5036570;28;20036;-96
2023/01/01 08:26:35;;;;;;;8.35;1.40;;;12.80;99.90;;;;;;5037416;28;20045;-95
2023/01/01 08:29:05;;;;;;;9.40;2.22;;;12.80;99.90;;;;;;5036447;28;20048;-96
2023/01/01 08:31:31;;;;;;;9.27;1.23;;;12.80;99.90;;;;;;5053056;28;20043;-95
2023/01/01 08:33:57;;;;;;;7.93;1.65;;;12.70;99.90;;;;;;5036862;28;20036;-94
2023/01/01 08:36:23;;;;;;;6.20;1.00;;;12.70;99.90;;;;;;5036396;28;20498;-94
2023/01/01 08:38:49;;;;;;;7.93;1.58;;;12.70;99.90;;;;;;5053696;28;20040;-94
2023/01/01 08:41:14;;;;;;;5.35;1.50;;;12.70;99.90;;;;;;5052882;28;20051;-94
2023/01/01 08:43:40;;;;;;;6.47;1.17;;;12.70;99.90;;;;;;5036596;28;20041;-95
2023/01/01 08:46:05;;;;;;;9.07;1.52;;;12.60;99.90;;;;;;5037020;28;20106;-95
2023/01/01 08:48:31;;;;;;;9.40;1.30;;;12.60;99.90;;;;;;5053106;28;20387;-94
2023/01/01 08:51:01;;;;;;;10.80;2.33;;;12.60;99.90;;;;;;5037040;28;20047;-95
2023/01/01 08:53:31;;;;;;;10.52;2.30;;;12.60;99.90;;;;;;5036143;28;20036;-94
2023/01/01 08:56:05;;;;;;;4.43;0.80;;;12.70;99.90;;;;;;5036062;28;20087;-94
2023/01/01 08:58:32;;;;;;;9.40;2.22;;;12.60;99.90;;;;;;5036482;28;20051;-93
2023/01/01 09:00:58;;;;;;;7.00;1.42;;;12.50;99.90;;;;;;5052390;28;20115;-92
2023/01/01 09:03:24;;;;;;;7.53;1.38;;;12.60;99.90;;;;;;5051340;28;20036;-95
2023/01/01 09:05:51;;;;;;;5.70;1.38;;;12.60;99.90;;;;;;5053112;28;20072;-94
2023/01/01 09:08:16;;;;;;;10.50;1.73;;;12.50;99.90;;;;;;5036196;28;20039;-95
2023/01/01 09:10:42;;;;;;;10.38;2.45;;;12.50;99.90;;;;;;5036143;28;20402;-94
2023/01/01 09:13:09;;;;;;;9.57;1.63;;;12.60;99.90;;;;;;5036413;28;20406;-95
2023/01/01 09:15:35;;;;;;;7.68;1.42;;;12.50;99.90;;;;;;5056856;28;20482;-93
2023/01/01 09:18:00;;;;;;;6.32;1.38;;;12.50;99.90;;;;;;5039450;28;20237;-95
2023/01/01 09:20:26;;;;;;;7.38;1.55;;;12.40;99.90;;;;;;5040277;28;20048;-95
2023/01/01 09:22:52;;;;;;;8.65;1.40;;;12.50;99.90;;;;;;5056562;28;20486;-95
2023/01/01 09:25:17;;;;;;;11.05;1.98;;;12.40;99.90;;;;;;5039439;28;20170;-96
2023/01/01 09:27:43;;;;;;;9.10;1.20;;;12.50;99.90;;;;;;5056433;28;20040;-95
2023/01/01 09:30:09;;;;;;;6.97;1.20;;;12.50;99.90;;;;;;5040036;28;20040;-95
2023/01/01 09:32:35;;;;;;;6.50;0.95;;;12.40;99.90;;;;;;5039546;28;20041;-95
2023/01/01 09:35:03;;;;;;;11.38;2.15;;;12.40;99.90;;;;;;5039739;28;20041;-93
2023/01/01 09:37:30;;;;;;;8.07;1.30;;;12.50;99.90;;;;;;5055951;28;20036;-94
2023/01/01 09:39:55;;;;;;;6.68;1.73;;;12.50;99.90;;;;;;5038998;28;20125;-94
2023/01/01 09:42:47;;;;;;;4.40;1.02;;;12.50;99.90;;;;;;5038999;28;20068;-94
2023/01/01 09:45:46;;;;;;;10.85;1.73;;;12.50;99.90;;;;;;5038957;28;20066;-94
2023/01/01 09:48:14;;;;;;;5.45;1.00;;;12.50;99.90;;;;;;5038736;28;20508;-94
2023/01/01 09:50:43;;;;;;;11.40;2.75;;;12.60;99.90;;;;;;5038904;28;20036;-93
2023/01/01 09:53:25;;;;;;;4.63;0.85;;;12.60;99.90;;;;;;5055674;28;20037;-96
2023/01/01 09:55:58;;;;;;;6.47;1.17;;;12.60;99.90;;;;;;5038694;28;20535;-94
2023/01/01 09:58:36;;;;;;;;;;;12.60;99.90;;;;;;5039542;28;20048;-94
2023/01/01 10:01:31;;;;;;;6.78;1.10;;;12.60;99.90;;;;;;5055557;28;19916;-94
2023/01/01 10:04:14;;;;;;;5.85;0.98;;;12.60;99.90;;;;;;5038190;28;20032;-94
2023/01/01 10:06:51;;;;;;;4.45;0.80;;;12.60;99.90;;;;;;5039312;28;20048;-94
2023/01/01 10:09:33;;;;;;;5.97;1.25;;;12.60;99.90;;;;;;5038389;28;20402;-93
2023/01/01 10:12:17;;;;;;;9.68;1.38;;;12.60;99.90;;;;;;5038829;28;20508;-94
2023/01/01 10:15:00;;;;;;;9.25;1.38;;;12.60;99.90;;;;;;5038034;28;20040;-95
2023/01/01 10:17:36;;;;;;;9.43;1.48;;;12.60;99.90;;;;;;5038431;28;20515;-92
2023/01/01 10:20:10;;;;;;;8.15;1.30;;;12.50;99.90;;;;;;5038805;28;20127;-94
2023/01/01 10:22:42;;;;;;;11.02;2.50;;;12.50;99.90;;;;;;5037796;28;20037;-93
2023/01/01 10:25:16;;;;;;;6.72;1.33;;;12.60;99.90;;;;;;5038701;28;20029;-94
2023/01/01 10:27:53;;;;;;;6.72;1.52;;;12.60;99.90;;;;;;5037235;28;20029;-94
2023/01/01 10:30:23;;;;;;;8.80;2.22;;;12.50;99.90;;;;;;5054083;28;20033;-94
2023/01/01 10:32:52;;;;;;;9.68;2.15;;;12.60;99.80;;;;;;5025622;28;20036;-93
2023/01/01 10:35:21;;;;;;;6.00;1.52;;;12.60;99.40;;;;;;5035061;28;20044;-95
2023/01/01 10:37:48;;;;;;;7.75;1.30;;;12.60;99.90;;;;;;5023423;28;20500;-96
2023/01/01 10:40:23;;;;;;;6.80;0.88;;;12.60;99.80;;;;;;5038263;28;20075;-94
2023/01/01 10:42:51;;;;;;;10.88;2.40;;;12.70;99.10;;;;;;5037418;28;20444;-93
2023/01/01 10:45:23;;;;;;;9.57;2.03;;;12.80;98.80;;;;;;5038232;28;20063;-94
2023/01/01 10:48:20;;;;;;;8.00;1.27;;;12.80;98.30;;;;;;5037256;28;20047;-93
2023/01/01 10:50:58;;;;;;;10.48;1.58;;;12.80;99.90;;;;;;5037374;28;20041;-93
2023/01/01 10:53:31;;;;;;;6.45;1.25;;;12.70;99.90;;;;;;5037806;28;20046;-95
2023/01/01 10:56:09;;;;;;;8.30;1.42;;;12.70;99.90;;;;;;5037796;28;20032;-94
2023/01/01 10:58:41;;;;;;;7.97;1.17;;;12.70;99.90;;;;;;5038459;28;20044;-95
2023/01/01 11:01:20;;;;;;;8.10;1.95;;;12.70;99.90;;;;;;5037615;28;20076;-95
2023/01/01 11:03:57;;;;;;;10.98;2.50;;;12.70;99.90;;;;;;5037771;28;20082;-95
2023/01/01 11:06:24;;;;;;;8.90;1.48;;;12.80;99.90;;;;;;5038045;28;20043;-95
2023/01/01 11:08:56;;;;;;;8.73;1.30;;;12.80;99.90;;;;;;5056451;28;20028;-95
2023/01/01 11:11:42;;;;;;;9.00;1.40;;;12.80;99.90;;;;;;5054914;28;20032;-93
2023/01/01 11:14:18;;;;;;;8.32;1.42;;;12.80;99.90;;;;;;5054418;28;20362;-95
2023/01/01 11:16:45;;;;;;;5.55;1.58;;;12.90;99.90;;;;;;5037958;28;20132;-96
2023/01/01 11:19:28;;;;;;;12.57;2.70;;;13.00;99.90;;;;;;5054762;28;20452;-94
2023/01/01 11:21:53;;;;;;;13.93;2.65;;;13.20;99.90;;;;;;5054202;28;20049;-95
2023/01/01 11:24:22;;;;;;;13.00;2.92;;;13.30;99.20;;;;;;5037723;28;20044;-96
2023/01/01 11:26:48;;;;;;;7.38;1.25;;;13.40;99.80;;;;;;5037236;28;20036;-95
2023/01/01 11:29:29;;;;;;;7.50;1.38;;;13.50;99.60;;;;;;5037721;28;20466;-94
2023/01/01 11:31:56;;;;;;;13.77;2.75;;;13.60;97.00;;;;;;5037866;28;20537;-95
2023/01/01 11:34:38;;;;;;;15.25;2.90;;;13.70;98.50;;;;;;5036971;28;20036;-95
2023/01/01 11:37:11;;;;;;;7.55;1.20;;;13.60;96.60;;;;;;5037183;28;20093;-96
2023/01/01 11:39:42;;;;;;;9.30;1.55;;;13.50;97.90;;;;;;5053573;28;20037;-95
2023/01/01 11:42:07;;;;;;;10.13;1.50;;;13.40;99.50;;;;;;5037374;28;20467;-95
2023/01/01 11:44:43;;;;;;;11.25;2.65;;;13.40;99.90;;;;;;5037009;28;20060;-95
2023/01/01 11:47:26;;;;;;;14.00;2.95;;;13.50;99.90;;;;;;5038017;28;20039;-96
2023/01/01 11:50:18;;;;;;;7.03;1.30;;;13.60;99.90;;;;;;5037446;28;20047;-94
2023/01/01 11:52:47;;;;;;;9.77;1.58;;;13.50;99.90;;;;;;5042885;28;20052;-95
2023/01/01 11:55:34;;;;;;;8.48;1.35;;;13.40;99.90;;;;;;5037504;28;20094;-94
2023/01/01 11:58:37;;;;;;;12.30;2.75;;;13.40;99.90;;;;;;5037102;28;20124;-93
2023/01/01 12:01:12;;;;;;;8.05;1.55;;;13.50;99.90;;;;;;5054145;28;20046;-94
2023/01/01 12:03:47;;;;;;;14.23;1.42;;;13.60;99.90;;;;;;5035870;28;20093;-94
2023/01/01 12:06:36;;;;;;;12.52;2.80;;;13.80;99.90;;;;;;5037755;28;20036;-95
2023/01/01 12:09:36;;;;;;;6.00;1.48;;;14.20;96.50;;;;;;5036915;28;20090;-94
2023/01/01 12:12:21;;;;;;;6.57;1.50;;;14.20;94.10;;;;;;5053502;28;20106;-95
2023/01/01 12:15:05;;;;;;;12.15;2.90;;;14.40;96.50;;;;;;5036924;28;20048;-95
2023/01/01 12:17:41;;;;;;;12.90;2.42;;;14.70;91.70;;;;;;5037627;28;20101;-95
2023/01/01 12:20:07;;;;;;;12.05;2.65;;;14.60;91.90;;;;;;5036884;28;20045;-95
2023/01/01 12:22:33;;;;;;;10.43;2.03;;;14.40;93.30;;;;;;5036812;28;20055;-94
2023/01/01 12:25:04;;;;;;;6.85;1.17;;;14.00;95.30;;;;;;5037185;28;20033;-95
2023/01/01 12:27:35;;;;;;;7.18;1.40;;;13.60;98.40;;;;;;5037054;28;20040;-95
2023/01/01 12:30:19;;;;;;;13.77;2.75;;;13.50;99.90;;;;;;5036993;28;20390;-95
2023/01/01 12:33:17;;;;;;;9.15;1.98;;;13.40;99.90;;;;;;5053141;28;20040;-95
2023/01/01 12:36:00;;;;;;;7.00;1.40;;;13.20;99.90;;;;;;5036653;28;20037;-95
2023/01/01 12:38:44;;;;;;;8.68;1.63;;;13.20;99.90;;;;;;5037276;28;20055;-95
2023/01/01 12:41:26;;;;;;;13.30;2.90;;;13.00;99.90;;;;;;5046598;28;20070;-96
2023/01/01 12:44:34;;;;;;;10.85;1.77;;;13.10;99.90;;;;;;5036869;28;20040;-95
2023/01/01 12:47:26;;;;;;;8.32;1.55;;;13.00;99.90;;;;;;5036728;28;20043;-93
2023/01/01 12:50:27;;;;;;;8.48;1.15;;;12.90;99.90;;;;;;5057341;28;20041;-96
2023/01/01 12:53:13;;;;;;;9.45;1.75;;;12.90;99.90;;;;;;5056926;28;20444;-95
2023/01/01 12:55:41;;;;;;;13.48;1.90;;;12.90;99.90;;;;;;5040847;28;20044;-96
2023/01/01 12:58:15;;;;;;;14.95;3.33;;;12.80;99.90;;;;;;5040306;28;20135;-95
2023/01/01 13:00:57;;;;;;;10.98;1.60;;;12.80;99.90;;;;;;5040832;28;20490;-95
2023/01/01 13:03:28;;;;;;;9.07;1.52;;;12.80;99.90;;;;;;5040196;28;20032;-95
2023/01/01 13:05:57;;;;;;;10.05;1.75;;;12.80;99.90;;;;;;5040806;28;20036;-95